»·PEaware :: AMMO18 KEND-KEND

AMMO18 :: KEND-KEND

FLIGHT INFORMATION

Flight Status: Arrived
Operator: Unknown
More flights by this operator :: More flights under this callsign
Pilot: Nathan H. (22210)
Aircraft: BEECH AIRCRAFT T-6A TEXAN
(TEX2)
More flights by this aircraft type
Origin: KEND Vance AFB
United States
Destination: KEND Vance AFB
United States
More flights between these airports :: More routes between these airports
Route: AVK END9
File this flight plan on PilotEdge
Remarks:
Altitude:
(Current/Filed)
null
Speed:
(Current/Filed)
0kts
Departed: 15-Sep-21 10:01 AM
Arrived: 15-Sep-21 10:38 AM
Distance/Time
Traveled:
0nm/0:36
Distance/Time
To Go:
Arrived

Flight Plot

Page will automatically refresh every two minutes.

Flight plan parsing failed; only flown route is shown


Map Options




Map Legend


Flown Route
Filed Route
Departure Airport
Arrival Airport
Navaid (VOR, NDB)
Fix

Horizontal Profiles

Position Reports

Time Latitude Longitude Heading Altitude Ground
Speed
15-Sep-21 09:41 36.346653 -97.910320 277 1310ft 0kts
15-Sep-21 09:45 36.346621 -97.910361 225 1310ft 0kts
15-Sep-21 09:46 36.346620 -97.910363 225 1310ft 0kts
15-Sep-21 09:46 36.346619 -97.910364 225 1310ft 0kts
15-Sep-21 09:47 36.346617 -97.910366 225 1310ft 0kts
15-Sep-21 09:48 36.346616 -97.910367 225 1310ft 0kts
15-Sep-21 09:51 36.346724 -97.911014 180 1310ft 0kts
15-Sep-21 09:52 36.346603 -97.910235 69 1310ft 2kts
15-Sep-21 09:53 36.346649 -97.910262 280 1310ft 0kts
15-Sep-21 09:55 36.346650 -97.910264 280 1310ft 0kts
15-Sep-21 09:55 36.346650 -97.910265 280 1310ft 0kts
15-Sep-21 09:56 36.346650 -97.910267 280 1310ft 0kts
15-Sep-21 09:57 36.346650 -97.910269 280 1310ft 0kts
15-Sep-21 09:58 36.346651 -97.910271 280 1310ft 0kts
15-Sep-21 09:59 36.346200 -97.910995 182 1310ft 27kts
15-Sep-21 10:00 36.308835 -97.911719 180 2264ft 185kts
15-Sep-21 10:01 36.253382 -97.913586 179 4156ft 212kts
15-Sep-21 10:02 36.200679 -97.886703 95 5008ft 251kts
15-Sep-21 10:03 36.257617 -97.869514 344 5363ft 262kts
15-Sep-21 10:04 36.327238 -97.887537 348 5099ft 239kts
15-Sep-21 10:05 36.391265 -97.905412 345 5024ft 233kts
15-Sep-21 10:06 36.455328 -97.911238 358 4949ft 234kts
15-Sep-21 10:07 36.519295 -97.910372 1 5216ft 219kts
15-Sep-21 10:08 36.578653 -97.907295 2 5978ft 211kts
15-Sep-21 10:09 36.624202 -97.942477 292 6087ft 224kts
15-Sep-21 10:10 36.645537 -98.018073 286 5687ft 238kts
15-Sep-21 10:11 36.661271 -98.099890 282 4018ft 239kts
15-Sep-21 10:12 36.681752 -98.177731 293 4109ft 238kts
15-Sep-21 10:13 36.702465 -98.258289 285 3815ft 240kts
15-Sep-21 10:14 36.744639 -98.320926 314 4132ft 229kts
15-Sep-21 10:15 36.787942 -98.382259 309 4116ft 238kts
15-Sep-21 10:16 36.822671 -98.450885 305 4340ft 238kts
15-Sep-21 10:17 36.839979 -98.521787 262 5034ft 238kts
15-Sep-21 10:18 36.834070 -98.603418 264 5026ft 249kts
15-Sep-21 10:19 36.845548 -98.670925 184 3981ft 178kts
15-Sep-21 10:20 36.802968 -98.669073 179 2214ft 107kts
15-Sep-21 10:21 36.772067 -98.668996 182 1547ft 112kts
15-Sep-21 10:22 36.729566 -98.683694 236 3437ft 204kts
15-Sep-21 10:23 36.741033 -98.722271 40 3542ft 188kts
15-Sep-21 10:24 36.753778 -98.677924 48 2115ft 128kts
15-Sep-21 10:25 36.782741 -98.668742 4 1728ft 139kts
15-Sep-21 10:26 36.827780 -98.666633 13 4246ft 174kts
15-Sep-21 10:27 36.809927 -98.610157 133 4339ft 236kts
15-Sep-21 10:28 36.765064 -98.549522 132 4393ft 238kts
15-Sep-21 10:29 36.718355 -98.490369 146 4415ft 239kts
15-Sep-21 10:30 36.679416 -98.423423 127 4429ft 235kts
15-Sep-21 10:31 36.625216 -98.377962 156 4662ft 231kts
15-Sep-21 10:32 36.572920 -98.329629 131 4766ft 247kts
15-Sep-21 10:33 36.553124 -98.253546 63 4757ft 259kts
15-Sep-21 10:34 36.598458 -98.207715 34 5732ft 197kts
15-Sep-21 10:35 36.650773 -98.173913 23 7415ft 234kts
15-Sep-21 10:36 36.684672 -98.154892 24 7895ft 251kts
15-Sep-21 10:37 36.333677 -97.910728 69 1310ft 6kts
15-Sep-21 10:38 36.333874 -97.910397 216 1310ft 0kts
15-Sep-21 10:39 36.333873 -97.910398 216 1310ft 0kts
15-Sep-21 10:40 36.333871 -97.910400 216 1310ft 0kts
15-Sep-21 10:41 36.333870 -97.910401 216 1310ft 0kts
15-Sep-21 10:42 36.333868 -97.910403 216 1310ft 0kts

Navigation Log

Ident Type
Flight plan parsing failed, navigation log unavailable